Terminal Aerodrome Forecast
Issued by NWS

Home | Current Version | Previous Version | Text Only | Print | Product List | Glossary On
Versions: 1 2 3 4 5 6 7 8 9 10 11 12 13
000
FTUS44 KLIX 251700
TAFMCB
TAF
KMCB 251721Z 2518/2618 VRB05KT P6SM SCT040
     FM260700 00000KT P6SM SCT008
      TEMPO 2610/2613 3SM BR BKN003
     FM261500 VRB03KT P6SM SCT050=

USA.gov is the U.S. government's official web portal to all federal, state and local government web resources and services.